sensor_id;sensor_type;location;lat;lon;timestamp;pressure;altitude;pressure_sealevel;temperature;humidity
4858;BME280;58975;51.978;8.472;2023-11-19T00:03:46;99857.59;;;7.71;100.00
4858;BME280;58975;51.978;8.472;2023-11-19T00:08:45;99856.50;;;7.85;100.00
4858;BME280;58975;51.978;8.472;2023-11-19T00:13:42;99861.81;;;7.96;100.00
4858;BME280;58975;51.978;8.472;2023-11-19T00:18:38;99873.31;;;8.07;100.00
4858;BME280;58975;51.978;8.472;2023-11-19T00:23:36;99869.66;;;8.08;100.00
4858;BME280;58975;51.978;8.472;2023-11-19T00:28:33;99882.56;;;8.13;100.00
4858;BME280;58975;51.978;8.472;2023-11-19T00:33:30;99864.59;;;8.17;100.00
4858;BME280;58975;51.978;8.472;2023-11-19T00:38:27;99865.69;;;8.25;100.00
4858;BME280;58975;51.978;8.472;2023-11-19T00:43:23;99857.88;;;8.35;100.00
4858;BME280;58975;51.978;8.472;2023-11-19T00:48:20;99852.59;;;8.35;100.00
4858;BME280;58975;51.978;8.472;2023-11-19T00:53:17;99854.22;;;8.47;100.00
4858;BME280;58975;51.978;8.472;2023-11-19T00:58:13;99858.56;;;8.48;100.00
4858;BME280;58975;51.978;8.472;2023-11-19T01:03:10;99846.03;;;8.50;100.00
4858;BME280;58975;51.978;8.472;2023-11-19T01:08:06;99845.06;;;8.51;100.00
4858;BME280;58975;51.978;8.472;2023-11-19T01:13:03;99853.03;;;8.62;100.00
4858;BME280;58975;51.978;8.472;2023-11-19T01:18:02;99853.47;;;8.67;100.00
4858;BME280;58975;51.978;8.472;2023-11-19T01:23:01;99866.75;;;8.67;100.00
4858;BME280;58975;51.978;8.472;2023-11-19T01:27:57;99858.28;;;8.73;100.00
4858;BME280;58975;51.978;8.472;2023-11-19T01:32:54;99853.06;;;8.83;100.00
4858;BME280;58975;51.978;8.472;2023-11-19T01:37:52;99851.13;;;8.85;100.00
4858;BME280;58975;51.978;8.472;2023-11-19T01:42:48;99846.75;;;8.95;100.00
4858;BME280;58975;51.978;8.472;2023-11-19T01:47:45;99845.25;;;9.02;100.00
4858;BME280;58975;51.978;8.472;2023-11-19T01:52:42;99842.59;;;9.02;100.00
4858;BME280;58975;51.978;8.472;2023-11-19T01:57:39;99826.66;;;9.02;100.00
4858;BME280;58975;51.978;8.472;2023-11-19T02:02:38;99814.13;;;9.04;100.00
4858;BME280;58975;51.978;8.472;2023-11-19T02:07:36;99812.50;;;9.13;100.00
4858;BME280;58975;51.978;8.472;2023-11-19T02:12:33;99807.63;;;9.18;100.00
4858;BME280;58975;51.978;8.472;2023-11-19T02:17:32;99792.81;;;9.15;100.00
4858;BME280;58975;51.978;8.472;2023-11-19T02:22:30;99801.09;;;9.22;100.00
4858;BME280;58975;51.978;8.472;2023-11-19T02:27:43;99802.53;;;9.26;100.00
4858;BME280;58975;51.978;8.472;2023-11-19T02:32:41;99798.22;;;9.25;100.00
4858;BME280;58975;51.978;8.472;2023-11-19T02:37:38;99793.31;;;9.30;100.00
4858;BME280;58975;51.978;8.472;2023-11-19T02:42:35;99783.28;;;9.33;100.00
4858;BME280;58975;51.978;8.472;2023-11-19T02:47:32;99804.34;;;9.46;100.00
4858;BME280;58975;51.978;8.472;2023-11-19T02:52:29;99791.31;;;9.43;100.00
4858;BME280;58975;51.978;8.472;2023-11-19T02:57:31;99790.94;;;9.47;100.00
4858;BME280;58975;51.978;8.472;2023-11-19T03:02:27;99798.09;;;9.57;100.00
4858;BME280;58975;51.978;8.472;2023-11-19T03:07:30;99806.69;;;9.60;100.00
4858;BME280;58975;51.978;8.472;2023-11-19T03:12:26;99787.41;;;9.68;100.00
4858;BME280;58975;51.978;8.472;2023-11-19T03:17:23;99784.94;;;9.76;100.00
4858;BME280;58975;51.978;8.472;2023-11-19T03:22:20;99778.94;;;9.83;100.00
4858;BME280;58975;51.978;8.472;2023-11-19T03:27:17;99778.56;;;9.97;100.00
4858;BME280;58975;51.978;8.472;2023-11-19T03:32:13;99788.13;;;10.10;100.00
4858;BME280;58975;51.978;8.472;2023-11-19T03:37:10;99777.97;;;10.15;100.00
4858;BME280;58975;51.978;8.472;2023-11-19T03:42:07;99772.81;;;10.23;100.00
4858;BME280;58975;51.978;8.472;2023-11-19T03:47:03;99777.28;;;10.32;100.00
4858;BME280;58975;51.978;8.472;2023-11-19T03:52:00;99775.63;;;10.31;100.00
4858;BME280;58975;51.978;8.472;2023-11-19T03:56:57;99811.06;;;10.41;100.00
4858;BME280;58975;51.978;8.472;2023-11-19T04:01:53;99807.03;;;10.47;100.00
4858;BME280;58975;51.978;8.472;2023-11-19T04:06:50;99804.09;;;10.50;100.00
4858;BME280;58975;51.978;8.472;2023-11-19T04:11:47;99808.72;;;10.57;100.00
4858;BME280;58975;51.978;8.472;2023-11-19T04:16:44;99801.88;;;10.64;100.00
4858;BME280;58975;51.978;8.472;2023-11-19T04:21:41;99789.13;;;10.68;100.00
4858;BME280;58975;51.978;8.472;2023-11-19T04:26:41;99773.41;;;10.74;100.00
4858;BME280;58975;51.978;8.472;2023-11-19T04:31:39;99778.06;;;10.82;100.00
4858;BME280;58975;51.978;8.472;2023-11-19T04:36:36;99773.69;;;10.90;100.00
4858;BME280;58975;51.978;8.472;2023-11-19T04:41:33;99764.44;;;10.95;100.00
4858;BME280;58975;51.978;8.472;2023-11-19T04:46:30;99745.66;;;10.96;100.00
4858;BME280;58975;51.978;8.472;2023-11-19T04:51:26;99721.97;;;10.93;100.00
4858;BME280;58975;51.978;8.472;2023-11-19T04:56:23;99690.44;;;10.88;100.00
4858;BME280;58975;51.978;8.472;2023-11-19T05:01:20;99644.72;;;10.83;100.00
4858;BME280;58975;51.978;8.472;2023-11-19T05:06:17;99617.84;;;10.77;100.00
4858;BME280;58975;51.978;8.472;2023-11-19T05:11:13;99601.03;;;10.76;100.00
4858;BME280;58975;51.978;8.472;2023-11-19T05:16:14;99579.16;;;10.73;100.00
4858;BME280;58975;51.978;8.472;2023-11-19T05:21:11;99569.31;;;10.83;100.00
4858;BME280;58975;51.978;8.472;2023-11-19T05:26:08;99556.72;;;10.85;100.00
4858;BME280;58975;51.978;8.472;2023-11-19T05:31:05;99548.72;;;10.85;100.00
4858;BME280;58975;51.978;8.472;2023-11-19T05:36:02;99524.19;;;10.81;100.00
4858;BME280;58975;51.978;8.472;2023-11-19T05:41:00;99517.59;;;10.85;100.00
4858;BME280;58975;51.978;8.472;2023-11-19T05:45:56;99493.47;;;10.87;100.00
4858;BME280;58975;51.978;8.472;2023-11-19T05:50:53;99482.25;;;10.83;100.00
4858;BME280;58975;51.978;8.472;2023-11-19T05:55:50;99479.59;;;10.83;100.00
4858;BME280;58975;51.978;8.472;2023-11-19T06:00:52;99479.66;;;10.74;100.00
4858;BME280;58975;51.978;8.472;2023-11-19T06:05:49;99480.47;;;10.74;100.00
4858;BME280;58975;51.978;8.472;2023-11-19T06:10:46;99465.06;;;10.78;100.00
4858;BME280;58975;51.978;8.472;2023-11-19T06:15:43;99463.41;;;10.67;100.00
4858;BME280;58975;51.978;8.472;2023-11-19T06:20:40;99451.09;;;10.66;100.00
4858;BME280;58975;51.978;8.472;2023-11-19T06:25:39;99454.75;;;10.65;100.00
4858;BME280;58975;51.978;8.472;2023-11-19T06:30:35;99462.63;;;10.57;100.00
4858;BME280;58975;51.978;8.472;2023-11-19T06:35:32;99459.56;;;10.52;100.00
4858;BME280;58975;51.978;8.472;2023-11-19T06:40:33;99456.66;;;10.46;100.00
4858;BME280;58975;51.978;8.472;2023-11-19T06:45:31;99461.47;;;10.69;100.00
4858;BME280;58975;51.978;8.472;2023-11-19T06:50:28;99463.22;;;10.78;100.00
4858;BME280;58975;51.978;8.472;2023-11-19T06:55:26;99462.63;;;10.84;100.00
4858;BME280;58975;51.978;8.472;2023-11-19T07:00:22;99461.66;;;10.85;100.00
4858;BME280;58975;51.978;8.472;2023-11-19T07:05:19;99471.59;;;10.83;100.00
4858;BME280;58975;51.978;8.472;2023-11-19T07:10:15;99476.25;;;10.81;100.00
4858;BME280;58975;51.978;8.472;2023-11-19T07:15:12;99491.69;;;10.78;100.00
4858;BME280;58975;51.978;8.472;2023-11-19T07:20:09;99482.16;;;10.75;100.00
4858;BME280;58975;51.978;8.472;2023-11-19T07:25:06;99477.69;;;10.76;100.00
4858;BME280;58975;51.978;8.472;2023-11-19T07:30:03;99492.81;;;10.75;100.00
4858;BME280;58975;51.978;8.472;2023-11-19T07:34:59;99485.53;;;10.77;100.00
4858;BME280;58975;51.978;8.472;2023-11-19T07:39:56;99481.03;;;10.78;100.00
4858;BME280;58975;51.978;8.472;2023-11-19T07:44:52;99493.09;;;10.72;100.00
4858;BME280;58975;51.978;8.472;2023-11-19T07:49:51;99503.75;;;10.82;100.00
4858;BME280;58975;51.978;8.472;2023-11-19T07:54:47;99496.75;;;10.71;100.00
4858;BME280;58975;51.978;8.472;2023-11-19T07:59:44;99486.25;;;10.70;100.00
4858;BME280;58975;51.978;8.472;2023-11-19T08:04:40;99515.09;;;10.74;100.00
4858;BME280;58975;51.978;8.472;2023-11-19T08:09:41;99506.13;;;10.75;100.00
4858;BME280;58975;51.978;8.472;2023-11-19T08:14:38;99513.81;;;10.78;100.00
4858;BME280;58975;51.978;8.472;2023-11-19T08:19:34;99530.53;;;10.71;100.00
4858;BME280;58975;51.978;8.472;2023-11-19T08:24:31;99533.47;;;10.77;100.00
4858;BME280;58975;51.978;8.472;2023-11-19T08:29:27;99538.63;;;10.79;100.00
4858;BME280;58975;51.978;8.472;2023-11-19T08:34:24;99543.22;;;10.86;100.00
4858;BME280;58975;51.978;8.472;2023-11-19T08:39:21;99541.94;;;10.90;100.00
4858;BME280;58975;51.978;8.472;2023-11-19T08:44:17;99542.38;;;10.86;100.00
4858;BME280;58975;51.978;8.472;2023-11-19T08:49:16;99537.31;;;10.93;100.00
4858;BME280;58975;51.978;8.472;2023-11-19T08:54:12;99537.75;;;10.88;100.00
4858;BME280;58975;51.978;8.472;2023-11-19T08:59:09;99554.34;;;10.72;100.00
4858;BME280;58975;51.978;8.472;2023-11-19T09:04:05;99557.78;;;10.46;100.00
4858;BME280;58975;51.978;8.472;2023-11-19T09:09:02;99570.56;;;10.42;100.00
4858;BME280;58975;51.978;8.472;2023-11-19T09:14:01;99561.00;;;10.49;100.00
4858;BME280;58975;51.978;8.472;2023-11-19T09:18:58;99566.88;;;10.62;100.00
4858;BME280;58975;51.978;8.472;2023-11-19T09:23:55;99573.59;;;10.66;100.00
4858;BME280;58975;51.978;8.472;2023-11-19T09:28:52;99566.41;;;10.67;100.00
4858;BME280;58975;51.978;8.472;2023-11-19T09:33:48;99570.34;;;10.72;100.00
4858;BME280;58975;51.978;8.472;2023-11-19T09:38:45;99575.78;;;10.80;100.00
4858;BME280;58975;51.978;8.472;2023-11-19T09:43:42;99573.06;;;10.90;100.00
4858;BME280;58975;51.978;8.472;2023-11-19T09:48:38;99558.03;;;10.99;100.00
4858;BME280;58975;51.978;8.472;2023-11-19T09:53:37;99570.34;;;11.09;100.00
4858;BME280;58975;51.978;8.472;2023-11-19T09:58:33;99576.81;;;11.07;100.00
4858;BME280;58975;51.978;8.472;2023-11-19T10:03:33;99560.72;;;11.26;100.00
4858;BME280;58975;51.978;8.472;2023-11-19T10:08:30;99564.72;;;11.39;100.00
4858;BME280;58975;51.978;8.472;2023-11-19T10:13:27;99564.56;;;11.41;100.00
4858;BME280;58975;51.978;8.472;2023-11-19T10:18:27;99563.97;;;11.47;100.00
4858;BME280;58975;51.978;8.472;2023-11-19T10:23:24;99566.56;;;11.39;100.00
4858;BME280;58975;51.978;8.472;2023-11-19T10:28:21;99571.34;;;11.35;100.00
4858;BME280;58975;51.978;8.472;2023-11-19T10:33:17;99570.38;;;11.36;100.00
4858;BME280;58975;51.978;8.472;2023-11-19T10:38:16;99563.75;;;11.41;100.00
4858;BME280;58975;51.978;8.472;2023-11-19T10:43:13;99571.59;;;11.42;100.00
4858;BME280;58975;51.978;8.472;2023-11-19T10:48:10;99562.59;;;11.43;100.00
4858;BME280;58975;51.978;8.472;2023-11-19T10:53:10;99574.84;;;11.36;100.00
4858;BME280;58975;51.978;8.472;2023-11-19T10:58:10;99551.84;;;11.35;100.00
4858;BME280;58975;51.978;8.472;2023-11-19T11:03:20;99554.50;;;11.35;100.00
4858;BME280;58975;51.978;8.472;2023-11-19T11:08:17;99554.53;;;11.25;100.00
4858;BME280;58975;51.978;8.472;2023-11-19T11:13:14;99542.75;;;11.01;100.00
4858;BME280;58975;51.978;8.472;2023-11-19T11:18:11;99537.09;;;10.76;100.00
4858;BME280;58975;51.978;8.472;2023-11-19T11:39:21;99536.06;;;11.24;100.00
4858;BME280;58975;51.978;8.472;2023-11-19T11:49:53;99539.88;;;10.84;100.00
4858;BME280;58975;51.978;8.472;2023-11-19T11:54:50;99530.69;;;10.69;100.00
4858;BME280;58975;51.978;8.472;2023-11-19T11:59:49;99525.47;;;10.77;100.00
4858;BME280;58975;51.978;8.472;2023-11-19T12:04:48;99528.94;;;10.87;100.00
4858;BME280;58975;51.978;8.472;2023-11-19T12:10:05;99524.13;;;11.01;100.00
4858;BME280;58975;51.978;8.472;2023-11-19T12:15:06;99530.72;;;11.24;100.00
4858;BME280;58975;51.978;8.472;2023-11-19T12:20:05;99508.31;;;11.44;100.00
4858;BME280;58975;51.978;8.472;2023-11-19T12:25:06;99501.28;;;11.61;100.00
4858;BME280;58975;51.978;8.472;2023-11-19T12:30:03;99509.47;;;11.59;100.00
4858;BME280;58975;51.978;8.472;2023-11-19T12:35:03;99511.38;;;11.67;100.00
4858;BME280;58975;51.978;8.472;2023-11-19T12:39:59;99493.47;;;11.59;100.00
4858;BME280;58975;51.978;8.472;2023-11-19T12:44:59;99489.03;;;11.50;100.00
4858;BME280;58975;51.978;8.472;2023-11-19T12:49:56;99488.81;;;11.44;100.00
4858;BME280;58975;51.978;8.472;2023-11-19T12:54:53;99473.66;;;11.44;100.00
4858;BME280;58975;51.978;8.472;2023-11-19T12:59:56;99479.59;;;11.56;100.00
4858;BME280;58975;51.978;8.472;2023-11-19T13:04:55;99475.47;;;11.61;100.00
4858;BME280;58975;51.978;8.472;2023-11-19T13:10:01;99475.47;;;11.61;100.00
4858;BME280;58975;51.978;8.472;2023-11-19T13:14:58;99470.75;;;11.55;100.00
4858;BME280;58975;51.978;8.472;2023-11-19T13:19:55;99469.59;;;11.58;100.00
4858;BME280;58975;51.978;8.472;2023-11-19T13:24:53;99470.75;;;11.55;100.00
4858;BME280;58975;51.978;8.472;2023-11-19T13:29:49;99454.00;;;11.63;100.00
4858;BME280;58975;51.978;8.472;2023-11-19T13:34:46;99454.38;;;11.68;100.00
4858;BME280;58975;51.978;8.472;2023-11-19T13:39:42;99459.97;;;11.74;100.00
4858;BME280;58975;51.978;8.472;2023-11-19T13:44:39;99453.34;;;11.69;100.00
4858;BME280;58975;51.978;8.472;2023-11-19T13:49:35;99448.78;;;11.61;100.00
4858;BME280;58975;51.978;8.472;2023-11-19T13:54:33;99451.03;;;11.48;100.00
4858;BME280;58975;51.978;8.472;2023-11-19T13:59:32;99452.31;;;11.44;100.00
4858;BME280;58975;51.978;8.472;2023-11-19T14:04:29;99451.16;;;11.47;100.00
4858;BME280;58975;51.978;8.472;2023-11-19T14:09:25;99443.63;;;11.60;100.00
4858;BME280;58975;51.978;8.472;2023-11-19T14:14:22;99436.16;;;11.63;100.00
4858;BME280;58975;51.978;8.472;2023-11-19T14:19:18;99447.00;;;11.79;100.00
4858;BME280;58975;51.978;8.472;2023-11-19T14:24:15;99440.31;;;11.75;100.00
4858;BME280;58975;51.978;8.472;2023-11-19T14:29:11;99438.59;;;11.57;100.00
4858;BME280;58975;51.978;8.472;2023-11-19T14:34:07;99433.03;;;11.50;100.00
4858;BME280;58975;51.978;8.472;2023-11-19T14:39:04;99455.44;;;11.39;100.00
4858;BME280;58975;51.978;8.472;2023-11-19T14:44:00;99447.34;;;11.31;100.00
4858;BME280;58975;51.978;8.472;2023-11-19T14:48:57;99443.72;;;11.32;100.00
4858;BME280;58975;51.978;8.472;2023-11-19T14:53:54;99455.03;;;11.17;100.00
4858;BME280;58975;51.978;8.472;2023-11-19T14:58:50;99449.34;;;11.02;100.00
4858;BME280;58975;51.978;8.472;2023-11-19T15:03:47;99452.00;;;11.02;100.00
4858;BME280;58975;51.978;8.472;2023-11-19T15:08:47;99447.22;;;11.06;100.00
4858;BME280;58975;51.978;8.472;2023-11-19T15:13:43;99455.16;;;10.98;100.00
4858;BME280;58975;51.978;8.472;2023-11-19T15:18:40;99470.03;;;10.90;100.00
4858;BME280;58975;51.978;8.472;2023-11-19T15:23:37;99466.16;;;10.85;100.00
4858;BME280;58975;51.978;8.472;2023-11-19T15:28:34;99467.72;;;10.78;100.00
4858;BME280;58975;51.978;8.472;2023-11-19T15:33:30;99462.97;;;10.72;100.00
4858;BME280;58975;51.978;8.472;2023-11-19T15:38:27;99473.09;;;10.68;100.00
4858;BME280;58975;51.978;8.472;2023-11-19T15:43:23;99483.31;;;10.63;100.00
4858;BME280;58975;51.978;8.472;2023-11-19T15:48:20;99478.84;;;10.64;100.00
4858;BME280;58975;51.978;8.472;2023-11-19T15:53:16;99473.38;;;10.65;100.00
4858;BME280;58975;51.978;8.472;2023-11-19T15:58:14;99471.59;;;10.56;100.00
4858;BME280;58975;51.978;8.472;2023-11-19T16:03:11;99485.94;;;10.36;100.00
4858;BME280;58975;51.978;8.472;2023-11-19T16:08:08;99480.22;;;10.12;100.00
4858;BME280;58975;51.978;8.472;2023-11-19T16:13:07;99487.66;;;9.98;100.00
4858;BME280;58975;51.978;8.472;2023-11-19T16:18:03;99497.47;;;9.88;100.00
4858;BME280;58975;51.978;8.472;2023-11-19T16:23:01;99504.19;;;9.83;100.00
4858;BME280;58975;51.978;8.472;2023-11-19T16:27:57;99510.06;;;9.77;100.00
4858;BME280;58975;51.978;8.472;2023-11-19T16:32:57;99521.94;;;9.73;100.00
4858;BME280;58975;51.978;8.472;2023-11-19T16:37:57;99520.13;;;9.73;100.00
4858;BME280;58975;51.978;8.472;2023-11-19T16:42:53;99517.75;;;9.70;100.00
4858;BME280;58975;51.978;8.472;2023-11-19T16:47:51;99518.72;;;9.69;100.00
4858;BME280;58975;51.978;8.472;2023-11-19T16:52:47;99528.28;;;9.72;100.00
4858;BME280;58975;51.978;8.472;2023-11-19T16:57:44;99534.81;;;9.77;100.00
4858;BME280;58975;51.978;8.472;2023-11-19T17:02:40;99526.00;;;9.77;100.00
4858;BME280;58975;51.978;8.472;2023-11-19T17:07:41;99526.00;;;9.77;100.00
4858;BME280;58975;51.978;8.472;2023-11-19T17:12:37;99526.44;;;9.82;100.00
4858;BME280;58975;51.978;8.472;2023-11-19T17:17:34;99527.84;;;9.86;100.00
4858;BME280;58975;51.978;8.472;2023-11-19T17:22:36;99523.50;;;9.94;100.00
4858;BME280;58975;51.978;8.472;2023-11-19T17:27:33;99521.28;;;10.00;100.00
4858;BME280;58975;51.978;8.472;2023-11-19T17:32:30;99519.84;;;10.05;100.00
4858;BME280;58975;51.978;8.472;2023-11-19T17:37:28;99525.59;;;10.10;100.00
4858;BME280;58975;51.978;8.472;2023-11-19T17:42:25;99523.91;;;10.09;100.00
4858;BME280;58975;51.978;8.472;2023-11-19T17:47:21;99529.66;;;9.85;100.00
4858;BME280;58975;51.978;8.472;2023-11-19T17:52:18;99537.91;;;9.63;100.00
4858;BME280;58975;51.978;8.472;2023-11-19T17:57:16;99552.72;;;9.56;100.00
4858;BME280;58975;51.978;8.472;2023-11-19T18:02:12;99553.13;;;9.52;100.00
4858;BME280;58975;51.978;8.472;2023-11-19T18:07:09;99557.75;;;9.49;100.00
4858;BME280;58975;51.978;8.472;2023-11-19T18:12:05;99574.69;;;9.48;100.00
4858;BME280;58975;51.978;8.472;2023-11-19T18:17:11;99572.16;;;9.47;100.00
4858;BME280;58975;51.978;8.472;2023-11-19T18:22:08;99577.47;;;9.47;100.00
4858;BME280;58975;51.978;8.472;2023-11-19T18:27:04;99587.25;;;9.46;100.00
4858;BME280;58975;51.978;8.472;2023-11-19T18:32:04;99583.63;;;9.47;100.00
4858;BME280;58975;51.978;8.472;2023-11-19T18:37:01;99580.56;;;9.52;100.00
4858;BME280;58975;51.978;8.472;2023-11-19T18:41:57;99590.91;;;9.55;100.00
4858;BME280;58975;51.978;8.472;2023-11-19T18:46:54;99582.38;;;9.61;100.00
4858;BME280;58975;51.978;8.472;2023-11-19T18:51:52;99580.28;;;9.65;100.00
4858;BME280;58975;51.978;8.472;2023-11-19T18:56:48;99570.09;;;9.60;100.00
4858;BME280;58975;51.978;8.472;2023-11-19T19:01:45;99573.44;;;9.62;100.00
4858;BME280;58975;51.978;8.472;2023-11-19T19:06:42;99577.91;;;9.62;100.00
4858;BME280;58975;51.978;8.472;2023-11-19T19:11:38;99576.38;;;9.59;100.00
4858;BME280;58975;51.978;8.472;2023-11-19T19:16:35;99579.56;;;9.53;100.00
4858;BME280;58975;51.978;8.472;2023-11-19T19:21:33;99582.78;;;9.47;100.00
4858;BME280;58975;51.978;8.472;2023-11-19T19:26:29;99594.53;;;9.44;100.00
4858;BME280;58975;51.978;8.472;2023-11-19T19:31:29;99598.69;;;9.37;100.00
4858;BME280;58975;51.978;8.472;2023-11-19T19:36:27;99603.31;;;9.35;100.00
4858;BME280;58975;51.978;8.472;2023-11-19T19:41:28;99603.19;;;9.37;100.00
4858;BME280;58975;51.978;8.472;2023-11-19T19:46:24;99598.13;;;9.34;100.00
4858;BME280;58975;51.978;8.472;2023-11-19T19:51:21;99606.94;;;9.34;100.00
4858;BME280;58975;51.978;8.472;2023-11-19T19:56:18;99599.81;;;9.35;100.00
4858;BME280;58975;51.978;8.472;2023-11-19T20:01:15;99607.34;;;9.30;100.00
4858;BME280;58975;51.978;8.472;2023-11-19T20:06:11;99614.88;;;9.25;100.00
4858;BME280;58975;51.978;8.472;2023-11-19T20:11:08;99614.88;;;9.25;100.00
4858;BME280;58975;51.978;8.472;2023-11-19T20:16:05;99615.13;;;9.22;100.00
4858;BME280;58975;51.978;8.472;2023-11-19T20:21:02;99623.81;;;9.24;100.00
4858;BME280;58975;51.978;8.472;2023-11-19T20:26:04;99625.75;;;9.22;100.00
4858;BME280;58975;51.978;8.472;2023-11-19T20:31:02;99637.09;;;9.24;100.00
4858;BME280;58975;51.978;8.472;2023-11-19T20:35:59;99638.06;;;9.23;100.00
4858;BME280;58975;51.978;8.472;2023-11-19T20:40:55;99641.47;;;9.25;100.00
4858;BME280;58975;51.978;8.472;2023-11-19T20:45:52;99647.72;;;9.24;100.00
4858;BME280;58975;51.978;8.472;2023-11-19T20:50:48;99638.53;;;9.28;100.00
4858;BME280;58975;51.978;8.472;2023-11-19T20:55:45;99647.34;;;9.28;100.00
4858;BME280;58975;51.978;8.472;2023-11-19T21:00:41;99650.00;;;9.28;100.00
4858;BME280;58975;51.978;8.472;2023-11-19T21:05:39;99650.13;;;9.27;100.00
4858;BME280;58975;51.978;8.472;2023-11-19T21:10:36;99644.94;;;9.25;100.00
4858;BME280;58975;51.978;8.472;2023-11-19T21:15:32;99641.47;;;9.25;100.00
4858;BME280;58975;51.978;8.472;2023-11-19T21:20:36;99630.81;;;9.25;100.00
4858;BME280;58975;51.978;8.472;2023-11-19T21:25:33;99635.88;;;9.28;100.00
4858;BME280;58975;51.978;8.472;2023-11-19T21:30:29;99637.81;;;9.26;100.00
4858;BME280;58975;51.978;8.472;2023-11-19T21:35:26;99632.25;;;9.29;100.00
4858;BME280;58975;51.978;8.472;2023-11-19T21:40:23;99625.25;;;9.28;100.00
4858;BME280;58975;51.978;8.472;2023-11-19T21:45:19;99631.97;;;9.32;100.00
4858;BME280;58975;51.978;8.472;2023-11-19T21:50:16;99630.28;;;9.31;100.00
4858;BME280;58975;51.978;8.472;2023-11-19T21:55:12;99629.31;;;9.32;100.00
4858;BME280;58975;51.978;8.472;2023-11-19T22:00:10;99632.66;;;9.34;100.00
4858;BME280;58975;51.978;8.472;2023-11-19T22:05:09;99648.34;;;9.37;100.00
4858;BME280;58975;51.978;8.472;2023-11-19T22:10:06;99633.38;;;9.36;100.00
4858;BME280;58975;51.978;8.472;2023-11-19T22:15:04;99635.06;;;9.37;100.00
4858;BME280;58975;51.978;8.472;2023-11-19T22:20:00;99635.88;;;9.37;100.00
4858;BME280;58975;51.978;8.472;2023-11-19T22:24:57;99643.16;;;9.35;100.00
4858;BME280;58975;51.978;8.472;2023-11-19T22:29:54;99639.38;;;9.38;100.00
4858;BME280;58975;51.978;8.472;2023-11-19T22:34:50;99632.13;;;9.40;100.00
4858;BME280;58975;51.978;8.472;2023-11-19T22:39:47;99638.16;;;9.42;100.00
4858;BME280;58975;51.978;8.472;2023-11-19T22:44:44;99626.28;;;9.46;100.00
4858;BME280;58975;51.978;8.472;2023-11-19T22:49:40;99623.63;;;9.46;100.00
4858;BME280;58975;51.978;8.472;2023-11-19T22:54:37;99630.50;;;9.48;100.00
4858;BME280;58975;51.978;8.472;2023-11-19T22:59:33;99628.53;;;9.50;100.00
4858;BME280;58975;51.978;8.472;2023-11-19T23:04:30;99633.16;;;9.48;100.00
4858;BME280;58975;51.978;8.472;2023-11-19T23:09:26;99641.81;;;9.50;100.00
4858;BME280;58975;51.978;8.472;2023-11-19T23:14:23;99636.22;;;9.54;100.00
4858;BME280;58975;51.978;8.472;2023-11-19T23:19:20;99648.84;;;9.61;100.00
4858;BME280;58975;51.978;8.472;2023-11-19T23:24:16;99648.84;;;9.61;100.00
4858;BME280;58975;51.978;8.472;2023-11-19T23:29:13;99648.59;;;9.64;100.00
4858;BME280;58975;51.978;8.472;2023-11-19T23:34:11;99656.56;;;9.64;100.00
4858;BME280;58975;51.978;8.472;2023-11-19T23:39:08;99655.72;;;9.64;100.00
4858;BME280;58975;51.978;8.472;2023-11-19T23:44:05;99657.25;;;9.66;100.00
4858;BME280;58975;51.978;8.472;2023-11-19T23:49:02;99659.22;;;9.64;100.00
4858;BME280;58975;51.978;8.472;2023-11-19T23:53:59;99654.47;;;9.68;100.00
4858;BME280;58975;51.978;8.472;2023-11-19T23:58:57;99671.28;;;9.68;100.00
